createdAt,value
2024-01-14T00:00:53.734Z,67.18
2024-01-14T00:03:21.112Z,66.22
2024-01-14T00:05:48.576Z,70.40
2024-01-14T00:08:16.137Z,64.50
2024-01-14T00:10:43.348Z,63.17
2024-01-14T00:13:10.635Z,60.28
2024-01-14T00:15:38.167Z,58.95
2024-01-14T00:18:05.836Z,58.88
2024-01-14T00:20:33.150Z,51.08
2024-01-14T00:23:00.378Z,71.70
2024-01-14T00:25:27.578Z,62.33
2024-01-14T00:27:54.791Z,61.40
2024-01-14T00:30:22.054Z,68.13
2024-01-14T00:32:49.572Z,59.42
2024-01-14T00:35:16.900Z,71.53
2024-01-14T00:37:44.196Z,65.82
2024-01-14T00:40:12.218Z,69.65
2024-01-14T00:42:39.573Z,66.80
2024-01-14T00:45:07.454Z,66.38
2024-01-14T00:47:35.754Z,70.05
2024-01-14T00:50:02.914Z,70.65
2024-01-14T00:52:30.254Z,71.07
2024-01-14T00:54:57.567Z,65.55
2024-01-14T00:57:24.876Z,66.85
2024-01-14T00:59:52.189Z,64.68
2024-01-14T01:02:19.702Z,70.60
2024-01-14T01:04:46.921Z,71.70
2024-01-14T01:07:14.234Z,70.35
2024-01-14T01:09:41.383Z,74.57
2024-01-14T01:12:08.581Z,74.68
2024-01-14T01:14:35.708Z,67.43
2024-01-14T01:17:02.979Z,67.25
2024-01-14T01:19:30.193Z,66.63
2024-01-14T01:21:57.528Z,73.47
2024-01-14T01:24:24.698Z,66.35
2024-01-14T01:26:52.852Z,73.22
2024-01-14T01:29:20.994Z,79.50
2024-01-14T01:31:51.431Z,68.43
2024-01-14T01:34:23.333Z,69.85
2024-01-14T01:36:50.799Z,70.50
2024-01-14T01:39:18.109Z,81.57
2024-01-14T01:41:45.310Z,69.93
2024-01-14T01:44:12.752Z,77.53
2024-01-14T01:46:40.284Z,76.80
2024-01-14T01:49:07.824Z,62.85
2024-01-14T01:51:35.366Z,74.22
2024-01-14T01:54:02.923Z,72.45
2024-01-14T01:56:31.186Z,74.72
2024-01-14T01:58:59.125Z,73.68
2024-01-14T02:01:26.567Z,70.38
2024-01-14T02:03:55.513Z,73.85
2024-01-14T02:06:23.707Z,74.13
2024-01-14T02:08:51.117Z,73.85
2024-01-14T02:11:18.471Z,76.95
2024-01-14T02:13:45.704Z,71.53
2024-01-14T02:16:13.500Z,75.97
2024-01-14T02:18:41.045Z,73.00
2024-01-14T02:21:11.860Z,66.97
2024-01-14T02:23:43.115Z,70.88
2024-01-14T02:26:10.473Z,65.30
2024-01-14T02:28:38.869Z,65.38
2024-01-14T02:31:07.467Z,66.57
2024-01-14T02:33:34.787Z,73.78
2024-01-14T02:36:02.255Z,75.07
2024-01-14T02:38:29.774Z,65.18
2024-01-14T02:40:56.983Z,63.40
2024-01-14T02:43:24.132Z,63.00
2024-01-14T02:45:51.376Z,63.63
2024-01-14T02:48:18.746Z,61.42
2024-01-14T02:50:46.178Z,70.65
2024-01-14T02:53:14.301Z,66.70
2024-01-14T02:55:41.614Z,62.78
2024-01-14T02:58:08.858Z,65.93
2024-01-14T03:00:36.159Z,64.18
2024-01-14T03:03:03.471Z,63.45
2024-01-14T03:05:30.858Z,63.05
2024-01-14T03:07:58.069Z,57.35
2024-01-14T03:10:25.314Z,56.08
2024-01-14T03:12:52.448Z,60.25
2024-01-14T03:15:19.783Z,55.75
2024-01-14T03:17:47.029Z,59.55
2024-01-14T03:20:14.403Z,58.40
2024-01-14T03:22:41.642Z,60.35
2024-01-14T03:25:09.314Z,51.92
2024-01-14T03:27:36.559Z,54.78
2024-01-14T03:30:04.297Z,48.42
2024-01-14T03:32:31.584Z,50.38
2024-01-14T03:34:58.970Z,51.25
2024-01-14T03:37:26.143Z,46.30
2024-01-14T03:39:54.426Z,45.28
2024-01-14T03:42:21.601Z,53.22
2024-01-14T03:44:48.971Z,55.55
2024-01-14T03:47:16.175Z,56.25
2024-01-14T03:49:43.631Z,54.17
2024-01-14T03:52:10.934Z,55.78
2024-01-14T03:54:38.226Z,53.13
2024-01-14T03:57:05.796Z,57.28
2024-01-14T03:59:33.174Z,55.20
2024-01-14T04:02:00.314Z,57.75
2024-01-14T04:04:27.714Z,64.05
2024-01-14T04:06:55.117Z,59.13
2024-01-14T04:09:22.540Z,60.15
2024-01-14T04:11:49.818Z,55.58
2024-01-14T04:14:17.179Z,62.75
2024-01-14T04:16:44.302Z,63.42
2024-01-14T04:19:11.545Z,57.53
2024-01-14T04:21:38.952Z,59.20
2024-01-14T04:24:06.553Z,59.45
2024-01-14T04:26:33.665Z,58.72
2024-01-14T04:29:01.079Z,61.00
2024-01-14T04:31:28.496Z,52.20
2024-01-14T04:33:58.123Z,53.05
2024-01-14T04:36:25.525Z,48.88
2024-01-14T04:38:52.758Z,46.70
2024-01-14T04:41:20.014Z,46.78
2024-01-14T04:43:47.536Z,47.85
2024-01-14T04:46:14.718Z,40.17
2024-01-14T04:48:42.370Z,46.40
2024-01-14T04:51:11.166Z,47.28
2024-01-14T04:53:38.457Z,46.63
2024-01-14T04:56:09.270Z,51.47
2024-01-14T04:58:36.651Z,48.80
2024-01-14T05:01:03.841Z,50.78
2024-01-14T05:03:31.399Z,50.50
2024-01-14T05:05:59.039Z,48.28
2024-01-14T05:08:26.424Z,50.58
2024-01-14T05:10:53.653Z,46.95
2024-01-14T05:13:20.928Z,48.97
2024-01-14T05:15:48.148Z,49.10
2024-01-14T05:18:15.510Z,57.00
2024-01-14T05:20:43.002Z,57.95
2024-01-14T05:23:10.274Z,53.47
2024-01-14T05:25:37.761Z,49.13
2024-01-14T05:28:05.273Z,45.90
2024-01-14T05:30:33.355Z,47.55
2024-01-14T05:33:00.806Z,46.33
2024-01-14T05:35:28.164Z,45.28
2024-01-14T05:37:55.464Z,44.10
2024-01-14T05:40:22.929Z,45.60
2024-01-14T05:42:50.284Z,47.03
2024-01-14T05:45:17.453Z,46.83
2024-01-14T05:47:44.889Z,44.70
2024-01-14T05:50:12.166Z,41.55
2024-01-14T05:52:39.465Z,52.45
2024-01-14T05:55:06.897Z,55.05
2024-01-14T05:57:34.257Z,52.17
2024-01-14T06:00:01.404Z,50.90
2024-01-14T06:02:34.098Z,47.85
2024-01-14T06:05:01.496Z,49.10
2024-01-14T06:07:28.743Z,52.42
2024-01-14T06:09:56.256Z,50.17
2024-01-14T06:12:23.568Z,50.42
2024-01-14T06:14:50.906Z,49.42
2024-01-14T06:17:18.057Z,44.75
2024-01-14T06:19:45.358Z,46.72
2024-01-14T06:22:13.936Z,48.72
2024-01-14T06:24:41.182Z,45.85
2024-01-14T06:27:08.407Z,45.28
2024-01-14T06:29:35.657Z,43.85
2024-01-14T06:32:02.896Z,51.80
2024-01-14T06:34:30.361Z,54.58
2024-01-14T06:36:57.623Z,49.58
2024-01-14T06:39:24.760Z,52.33
2024-01-14T06:41:53.236Z,52.50
2024-01-14T06:44:20.405Z,49.38
2024-01-14T06:46:47.770Z,47.85
2024-01-14T06:49:15.225Z,49.88
2024-01-14T06:51:44.106Z,53.05
2024-01-14T06:54:11.749Z,55.95
2024-01-14T06:56:42.084Z,59.90
2024-01-14T06:59:13.395Z,56.38
2024-01-14T07:01:40.678Z,59.08
2024-01-14T07:04:07.994Z,50.72
2024-01-14T07:06:35.318Z,46.58
2024-01-14T07:09:02.476Z,45.60
2024-01-14T07:11:29.772Z,45.70
2024-01-14T07:13:56.950Z,40.65
2024-01-14T07:16:24.214Z,39.15
2024-01-14T07:18:51.489Z,41.22
2024-01-14T07:21:22.421Z,39.78
2024-01-14T07:23:50.081Z,38.10
2024-01-14T07:26:23.470Z,49.05
2024-01-14T07:28:54.563Z,47.38
2024-01-14T07:31:23.103Z,51.03
2024-01-14T07:33:53.042Z,50.00
2024-01-14T07:36:21.265Z,49.67
2024-01-14T07:38:49.116Z,44.67
2024-01-14T07:41:17.102Z,47.45
2024-01-14T07:43:44.978Z,45.95
2024-01-14T07:46:12.836Z,48.92
2024-01-14T07:48:40.632Z,47.85
2024-01-14T07:51:08.123Z,46.95
2024-01-14T07:53:35.735Z,46.05
2024-01-14T07:56:04.811Z,48.83
2024-01-14T07:58:32.230Z,52.80
2024-01-14T08:01:02.379Z,58.55
2024-01-14T08:03:32.359Z,61.08
2024-01-14T08:06:01.652Z,56.03
2024-01-14T08:08:29.771Z,57.15
2024-01-14T08:10:57.069Z,51.72
2024-01-14T08:13:24.868Z,45.40
2024-01-14T08:15:58.153Z,49.25
2024-01-14T08:18:31.676Z,60.90
2024-01-14T08:21:00.045Z,47.13
2024-01-14T08:23:29.790Z,52.13
2024-01-14T08:25:58.143Z,50.50
2024-01-14T08:28:25.625Z,49.13
2024-01-14T08:30:53.048Z,56.45
2024-01-14T08:33:20.544Z,58.00
2024-01-14T08:35:47.671Z,58.08
2024-01-14T08:38:14.893Z,51.55
2024-01-14T08:40:42.137Z,57.10
2024-01-14T08:43:09.797Z,57.58
2024-01-14T08:45:37.039Z,56.28
2024-01-14T08:48:04.927Z,55.10
2024-01-14T08:50:32.541Z,57.63
2024-01-14T08:52:59.800Z,55.22
2024-01-14T08:55:27.005Z,56.10
2024-01-14T08:57:54.243Z,53.78
2024-01-14T09:00:21.827Z,54.15
2024-01-14T09:02:49.199Z,58.72
2024-01-14T09:05:17.587Z,59.65
2024-01-14T09:07:44.860Z,60.00
2024-01-14T09:10:12.548Z,56.70
2024-01-14T09:12:39.826Z,56.75
2024-01-14T09:15:07.774Z,56.20
2024-01-14T09:17:36.387Z,52.60
2024-01-14T09:20:06.314Z,52.70
2024-01-14T09:22:33.862Z,51.47
2024-01-14T09:25:01.058Z,46.58
2024-01-14T09:27:31.801Z,48.88
2024-01-14T09:30:00.242Z,44.17
2024-01-14T09:32:27.808Z,38.97
2024-01-14T09:34:55.888Z,44.22
2024-01-14T09:37:23.039Z,42.38
2024-01-14T09:39:50.368Z,47.38
2024-01-14T09:42:22.041Z,37.10
2024-01-14T09:44:52.426Z,36.30
2024-01-14T09:47:19.705Z,39.30
2024-01-14T09:49:47.182Z,35.05
2024-01-14T09:52:15.327Z,33.60
2024-01-14T09:54:42.732Z,33.25
2024-01-14T09:57:15.538Z,33.53
2024-01-14T09:59:44.728Z,38.30
2024-01-14T10:02:13.107Z,38.90
2024-01-14T10:04:41.625Z,38.92
2024-01-14T10:07:09.777Z,40.30
2024-01-14T10:09:39.981Z,38.38
2024-01-14T10:12:10.287Z,37.55
2024-01-14T10:14:38.857Z,38.95
2024-01-14T10:17:06.352Z,41.03
2024-01-14T10:19:34.002Z,45.13
2024-01-14T10:22:14.959Z,45.13
2024-01-14T10:24:50.125Z,41.30
2024-01-14T10:27:33.800Z,38.33
2024-01-14T10:30:10.334Z,39.78
2024-01-14T10:33:15.395Z,44.77
2024-01-14T10:35:26.620Z,44.03
2024-01-14T10:37:54.545Z,38.35
2024-01-14T10:40:23.696Z,37.90
2024-01-14T10:42:51.444Z,37.85
2024-01-14T10:45:18.948Z,41.40
2024-01-14T10:47:49.158Z,40.80
2024-01-14T10:50:19.636Z,45.88
2024-01-14T10:52:55.832Z,44.60
2024-01-14T10:55:41.971Z,42.25
2024-01-14T10:58:15.299Z,44.30
2024-01-14T11:00:48.006Z,48.00
2024-01-14T11:03:15.914Z,47.33
2024-01-14T11:05:43.422Z,41.75
2024-01-14T11:08:13.184Z,50.60
2024-01-14T11:10:41.109Z,42.85
2024-01-14T11:13:22.754Z,41.78
2024-01-14T11:16:00.569Z,44.22
2024-01-14T11:18:35.065Z,44.22
2024-01-14T11:21:26.573Z,38.70
2024-01-14T11:24:02.535Z,37.55
2024-01-14T11:26:29.983Z,43.95
2024-01-14T11:29:00.511Z,40.53
2024-01-14T11:31:49.137Z,39.58
2024-01-14T11:34:19.602Z,41.60
2024-01-14T11:36:50.486Z,40.72
2024-01-14T11:39:18.033Z,42.90
2024-01-14T11:41:45.951Z,41.40
2024-01-14T11:44:13.420Z,40.95
2024-01-14T11:46:47.387Z,42.03
2024-01-14T11:49:24.780Z,40.67
2024-01-14T11:51:57.636Z,38.75
2024-01-14T11:54:25.650Z,38.97
2024-01-14T11:56:53.853Z,34.00
2024-01-14T11:59:34.349Z,34.40
2024-01-14T12:02:11.967Z,29.27
2024-01-14T12:04:39.191Z,32.13
2024-01-14T12:07:06.558Z,32.78
2024-01-14T12:09:35.158Z,37.03
2024-01-14T12:12:05.796Z,33.60
2024-01-14T12:14:38.634Z,31.92
2024-01-14T12:17:09.124Z,35.10
2024-01-14T12:19:36.317Z,32.83
2024-01-14T12:22:04.141Z,34.92
2024-01-14T12:24:31.411Z,35.25
2024-01-14T12:27:00.638Z,31.90
2024-01-14T12:29:32.045Z,29.13
2024-01-14T12:31:59.871Z,30.08
2024-01-14T12:34:27.275Z,30.33
2024-01-14T12:36:55.486Z,32.97
2024-01-14T12:39:24.893Z,34.38
2024-01-14T12:41:54.948Z,35.40
2024-01-14T12:44:26.823Z,33.38
2024-01-14T12:46:59.434Z,36.05
2024-01-14T12:49:27.302Z,37.40
2024-01-14T12:51:57.599Z,39.00
2024-01-14T12:54:26.914Z,38.08
2024-01-14T12:57:01.531Z,33.92
2024-01-14T12:59:30.441Z,36.25
2024-01-14T13:01:57.713Z,35.85
2024-01-14T13:04:27.592Z,36.00
2024-01-14T13:06:58.722Z,33.60
2024-01-14T13:09:28.728Z,33.95
2024-01-14T13:11:56.533Z,34.85
2024-01-14T13:14:23.978Z,35.83
2024-01-14T13:16:54.462Z,38.03
2024-01-14T13:19:22.647Z,34.05
2024-01-14T13:21:50.258Z,39.67
2024-01-14T13:24:17.747Z,38.50
2024-01-14T13:26:45.166Z,35.95
2024-01-14T13:29:12.634Z,38.65
2024-01-14T13:31:41.644Z,36.33
2024-01-14T13:34:10.328Z,36.72
2024-01-14T13:36:37.853Z,49.45
2024-01-14T13:39:06.252Z,42.05
2024-01-14T13:41:34.313Z,37.88
2024-01-14T13:46:32.606Z,35.05
2024-01-14T13:48:59.890Z,36.90
2024-01-14T13:51:27.450Z,37.35
2024-01-14T13:54:03.433Z,36.00
2024-01-14T13:56:42.934Z,39.53
2024-01-14T13:59:12.008Z,39.33
2024-01-14T14:01:40.300Z,42.15
2024-01-14T14:04:09.959Z,41.30
2024-01-14T14:06:39.140Z,39.45
2024-01-14T14:09:09.003Z,36.03
2024-01-14T14:11:37.095Z,39.75
2024-01-14T14:14:05.214Z,37.97
2024-01-14T14:16:40.058Z,36.05
2024-01-14T14:19:12.569Z,35.53
2024-01-14T14:21:53.794Z,36.78
2024-01-14T14:24:28.164Z,41.00
2024-01-14T14:26:55.702Z,41.50
2024-01-14T14:29:25.518Z,37.20
2024-01-14T14:31:54.977Z,38.13
2024-01-14T14:34:22.978Z,34.85
2024-01-14T14:36:50.768Z,36.30
2024-01-14T14:39:20.186Z,35.95
2024-01-14T14:41:48.699Z,36.53
2024-01-14T14:44:16.623Z,39.10
2024-01-14T14:46:44.173Z,36.83
2024-01-14T14:49:12.234Z,36.08
2024-01-14T14:51:42.216Z,36.47
2024-01-14T14:54:11.511Z,34.13
2024-01-14T14:56:40.330Z,33.90
2024-01-14T14:59:08.038Z,32.83
2024-01-14T15:01:42.554Z,32.17
2024-01-14T15:04:15.286Z,32.15
2024-01-14T15:06:45.437Z,31.20
2024-01-14T15:09:15.990Z,32.75
2024-01-14T15:11:43.942Z,35.08
2024-01-14T15:14:12.027Z,34.50
2024-01-14T15:16:42.063Z,34.03
2024-01-14T15:19:09.613Z,32.83
2024-01-14T15:21:37.888Z,34.25
2024-01-14T15:24:05.358Z,32.97
2024-01-14T15:26:34.530Z,33.80
2024-01-14T15:29:01.996Z,33.25
2024-01-14T15:31:30.740Z,35.60
2024-01-14T15:33:59.269Z,32.75
2024-01-14T15:36:29.856Z,29.80
2024-01-14T15:38:59.420Z,29.48
2024-01-14T15:41:27.928Z,32.25
2024-01-14T15:43:55.471Z,31.60
2024-01-14T15:46:22.715Z,34.47
2024-01-14T15:48:51.820Z,30.63
2024-01-14T15:51:19.348Z,32.17
2024-01-14T15:53:46.715Z,34.38
2024-01-14T15:56:14.827Z,30.38
2024-01-14T15:58:42.928Z,33.63
2024-01-14T16:01:13.311Z,37.20
2024-01-14T16:03:44.613Z,34.88
2024-01-14T16:06:14.242Z,34.85
2024-01-14T16:08:43.663Z,35.13
2024-01-14T16:11:11.033Z,38.55
2024-01-14T16:13:38.457Z,33.10
2024-01-14T16:16:07.516Z,33.00
2024-01-14T16:18:36.109Z,34.20
2024-01-14T16:21:07.870Z,35.60
2024-01-14T16:23:38.926Z,36.72
2024-01-14T16:26:08.239Z,39.50
2024-01-14T16:28:35.545Z,37.20
2024-01-14T16:31:11.145Z,36.88
2024-01-14T16:33:44.199Z,36.22
2024-01-14T16:36:14.754Z,35.83
2024-01-14T16:38:42.396Z,35.13
2024-01-14T16:41:10.038Z,38.25
2024-01-14T16:43:37.810Z,37.75
2024-01-14T16:46:06.160Z,41.50
2024-01-14T16:48:34.522Z,35.08
2024-01-14T16:51:09.775Z,33.08
2024-01-14T16:53:41.173Z,34.55
2024-01-14T16:56:12.553Z,34.00
2024-01-14T16:58:40.753Z,32.85
2024-01-14T17:01:15.467Z,34.17
2024-01-14T17:03:47.531Z,32.75
2024-01-14T17:06:16.903Z,35.85
2024-01-14T17:08:47.430Z,35.38
2024-01-14T17:11:16.383Z,39.85
2024-01-14T17:13:44.104Z,32.78
2024-01-14T17:16:14.453Z,37.47
2024-01-14T17:18:42.551Z,36.85
2024-01-14T17:21:10.088Z,39.30
2024-01-14T17:23:37.646Z,37.97
2024-01-14T17:26:08.293Z,43.17
2024-01-14T17:28:41.101Z,36.97
2024-01-14T17:31:11.800Z,38.80
2024-01-14T17:33:40.569Z,37.20
2024-01-14T17:36:11.725Z,38.08
2024-01-14T17:38:39.970Z,43.65
2024-01-14T17:41:08.923Z,36.60
2024-01-14T17:43:36.704Z,39.80
2024-01-14T17:46:08.255Z,45.13
2024-01-14T17:48:39.644Z,42.42
2024-01-14T17:51:09.330Z,41.47
2024-01-14T17:53:38.179Z,40.10
2024-01-14T17:56:05.934Z,44.72
2024-01-14T17:58:33.204Z,37.97
2024-01-14T18:01:03.423Z,36.30
2024-01-14T18:03:31.123Z,40.60
2024-01-14T18:05:59.655Z,45.30
2024-01-14T18:08:26.897Z,40.85
2024-01-14T18:10:54.074Z,43.60
2024-01-14T18:13:21.927Z,41.63
2024-01-14T18:15:50.201Z,38.17
2024-01-14T18:18:18.355Z,36.72
2024-01-14T18:20:45.829Z,41.92
2024-01-14T18:23:14.427Z,42.45
2024-01-14T18:25:44.135Z,42.85
2024-01-14T18:28:14.269Z,39.00
2024-01-14T18:30:42.212Z,38.88
2024-01-14T18:33:12.738Z,37.38
2024-01-14T18:35:43.976Z,39.45
2024-01-14T18:38:13.386Z,41.78
2024-01-14T18:40:41.073Z,47.75
2024-01-14T18:43:10.070Z,39.40
2024-01-14T18:45:38.434Z,38.45
2024-01-14T18:48:07.118Z,35.75
2024-01-14T18:50:35.703Z,38.40
2024-01-14T18:53:05.245Z,36.88
2024-01-14T18:55:32.627Z,37.75
2024-01-14T18:57:59.889Z,37.85
2024-01-14T19:00:27.125Z,39.28
2024-01-14T19:02:54.420Z,39.00
2024-01-14T19:05:21.754Z,39.25
2024-01-14T19:07:49.305Z,42.97
2024-01-14T19:10:16.573Z,39.03
2024-01-14T19:12:44.119Z,43.15
2024-01-14T19:15:11.492Z,41.72
2024-01-14T19:17:38.758Z,36.83
2024-01-14T19:20:06.900Z,38.90
2024-01-14T19:22:35.535Z,41.53
2024-01-14T19:25:04.144Z,42.88
2024-01-14T19:27:32.415Z,44.03
2024-01-14T19:29:59.654Z,36.88
2024-01-14T19:32:28.621Z,40.92
2024-01-14T19:34:56.218Z,35.83
2024-01-14T19:37:23.549Z,45.45
2024-01-14T19:39:52.247Z,41.80
2024-01-14T19:42:20.103Z,48.17
2024-01-14T19:44:47.263Z,42.10
2024-01-14T19:47:15.693Z,43.15
2024-01-14T19:49:42.982Z,41.85
2024-01-14T19:52:10.352Z,36.08
2024-01-14T19:54:37.879Z,48.55
2024-01-14T19:57:06.063Z,46.25
2024-01-14T19:59:33.476Z,45.08
2024-01-14T20:02:01.384Z,47.95
2024-01-14T20:04:28.732Z,52.15
2024-01-14T20:06:56.362Z,48.97
2024-01-14T20:09:25.229Z,51.30
2024-01-14T20:11:55.729Z,51.55
2024-01-14T20:14:23.522Z,51.33
2024-01-14T20:16:52.514Z,54.38
2024-01-14T20:19:21.111Z,52.08
2024-01-14T20:21:49.726Z,48.67
2024-01-14T20:24:17.499Z,46.63
2024-01-14T20:26:46.842Z,47.00
2024-01-14T20:29:14.216Z,51.85
2024-01-14T20:31:41.541Z,50.22
2024-01-14T20:34:08.974Z,51.45
2024-01-14T20:36:36.316Z,50.78
2024-01-14T20:39:04.021Z,56.85
2024-01-14T20:41:31.352Z,48.33
2024-01-14T20:43:58.680Z,49.72
2024-01-14T20:46:25.898Z,54.58
2024-01-14T20:48:53.906Z,45.80
2024-01-14T20:51:21.523Z,40.78
2024-01-14T20:53:48.827Z,39.70
2024-01-14T20:56:16.370Z,42.08
2024-01-14T20:58:43.636Z,48.65
2024-01-14T21:01:10.735Z,44.35
2024-01-14T21:03:39.335Z,44.30
2024-01-14T21:06:06.979Z,38.78
2024-01-14T21:08:34.532Z,43.20
2024-01-14T21:11:01.729Z,47.03
2024-01-14T21:13:29.010Z,43.30
2024-01-14T21:15:56.322Z,42.72
2024-01-14T21:18:25.409Z,51.03
2024-01-14T21:20:53.254Z,42.03
2024-01-14T21:23:20.894Z,46.20
2024-01-14T21:25:48.864Z,46.33
2024-01-14T21:28:16.210Z,46.28
2024-01-14T21:30:43.598Z,46.30
2024-01-14T21:33:11.074Z,62.47
2024-01-14T21:35:38.550Z,52.70
2024-01-14T21:38:05.738Z,57.78
2024-01-14T21:40:33.080Z,54.65
2024-01-14T21:43:00.292Z,58.65
2024-01-14T21:45:28.864Z,55.95
2024-01-14T21:47:56.296Z,61.88
2024-01-14T21:50:24.145Z,57.65
2024-01-14T21:52:51.596Z,57.88
2024-01-14T21:55:19.065Z,55.38
2024-01-14T21:57:46.922Z,56.60
2024-01-14T22:00:14.621Z,51.35
2024-01-14T22:02:41.865Z,57.03
2024-01-14T22:05:09.309Z,50.13
2024-01-14T22:07:36.473Z,46.40
2024-01-14T22:10:04.538Z,55.70
2024-01-14T22:12:31.865Z,56.47
2024-01-14T22:14:59.395Z,64.30
2024-01-14T22:17:26.572Z,65.85
2024-01-14T22:19:54.002Z,62.40
2024-01-14T22:22:21.244Z,71.00
2024-01-14T22:24:48.605Z,61.72
2024-01-14T22:27:18.742Z,62.72
2024-01-14T22:29:46.015Z,62.75
2024-01-14T22:32:13.136Z,55.17
2024-01-14T22:34:40.637Z,63.80
2024-01-14T22:37:07.958Z,51.42
2024-01-14T22:39:35.243Z,59.20
2024-01-14T22:42:02.523Z,60.22
2024-01-14T22:44:29.803Z,65.10
2024-01-14T22:46:56.988Z,65.03
2024-01-14T22:49:24.335Z,60.58
2024-01-14T22:51:51.716Z,56.92
2024-01-14T22:54:19.133Z,59.03
2024-01-14T22:56:46.675Z,58.63
2024-01-14T22:59:13.893Z,55.13
2024-01-14T23:01:41.319Z,48.53
2024-01-14T23:04:09.111Z,48.95
2024-01-14T23:06:36.559Z,58.47
2024-01-14T23:09:04.103Z,60.80
2024-01-14T23:11:31.585Z,62.50
2024-01-14T23:13:58.797Z,61.55
2024-01-14T23:16:25.968Z,59.80
2024-01-14T23:18:53.370Z,65.70
2024-01-14T23:21:20.725Z,63.22
2024-01-14T23:23:48.806Z,67.30
2024-01-14T23:26:16.060Z,68.88
2024-01-14T23:28:43.367Z,58.42
2024-01-14T23:31:10.606Z,68.75
2024-01-14T23:33:38.375Z,68.57
2024-01-14T23:36:06.038Z,63.80
2024-01-14T23:38:33.361Z,63.33
2024-01-14T23:41:00.691Z,61.53
2024-01-14T23:43:28.298Z,61.17
2024-01-14T23:45:56.110Z,57.35
2024-01-14T23:48:23.933Z,58.70
2024-01-14T23:50:51.272Z,68.75
2024-01-14T23:53:18.610Z,58.78
2024-01-14T23:56:11.892Z,67.57
2024-01-14T23:58:39.262Z,67.38
